Time;durP1;ratioP1;P1;durP2;ratioP2;P2;SDS_P1;SDS_P2;PMS_P1;PMS_P2;Temp;Humidity;BMP_temperature;BMP_pressure;BME280_temperature;BME280_humidity;BME280_pressure;Samples;Min_cycle;Max_cycle;Signal;HPM_P1;HPM_P2
2021/05/21 00:01:13;;;;;;;2.30;0.80;;;13.60;89.60;;;;;;5059338;28;20476;-80
2021/05/21 00:03:39;;;;;;;4.65;0.90;;;13.60;89.40;;;;;;5056584;28;20095;-80
2021/05/21 00:06:05;;;;;;;1.65;0.55;;;13.60;89.30;;;;;;5057328;28;20060;-80
2021/05/21 00:08:31;;;;;;;3.35;0.68;;;13.50;89.60;;;;;;5071126;28;20115;-80
2021/05/21 00:10:56;;;;;;;3.63;0.60;;;13.50;89.30;;;;;;5054054;28;20017;-80
2021/05/21 00:13:22;;;;;;;2.60;0.85;;;13.50;89.40;;;;;;5055206;28;20435;-80
2021/05/21 00:15:47;;;;;;;1.55;0.57;;;13.50;89.60;;;;;;5057510;28;20270;-80
2021/05/21 00:18:13;;;;;;;3.45;0.70;;;13.50;89.90;;;;;;5057779;28;20016;-79
2021/05/21 00:20:38;;;;;;;3.60;0.70;;;13.50;89.40;;;;;;5056282;28;20393;-80
2021/05/21 00:23:04;;;;;;;2.38;0.70;;;13.60;89.50;;;;;;5057209;28;20059;-80
2021/05/21 00:25:29;;;;;;;2.95;0.60;;;13.60;89.60;;;;;;5055318;28;20017;-80
2021/05/21 00:27:55;;;;;;;2.92;0.50;;;13.60;89.60;;;;;;5070456;28;20036;-80
2021/05/21 00:30:21;;;;;;;2.50;0.50;;;13.60;89.40;;;;;;5054953;28;20056;-80
2021/05/21 00:32:46;;;;;;;1.98;1.13;;;13.70;89.20;;;;;;5056973;28;20388;-80
2021/05/21 00:35:12;;;;;;;1.83;0.75;;;13.70;89.40;;;;;;5058692;28;20028;-80
2021/05/21 00:37:38;;;;;;;2.10;0.52;;;13.70;89.20;;;;;;5055751;28;20037;-80
2021/05/21 00:40:04;;;;;;;5.28;1.05;;;13.70;89.30;;;;;;5056764;28;20031;-80
2021/05/21 00:42:29;;;;;;;1.38;0.60;;;13.70;89.10;;;;;;5066726;28;20025;-80
2021/05/21 00:44:58;;;;;;;2.83;0.90;;;13.70;89.30;;;;;;5054782;28;20381;-80
2021/05/21 00:47:24;;;;;;;4.32;1.00;;;13.70;89.10;;;;;;5054220;28;20174;-80
2021/05/21 00:49:50;;;;;;;5.72;0.73;;;13.70;89.30;;;;;;5055714;28;20025;-80
2021/05/21 00:52:17;;;;;;;2.10;0.50;;;13.80;89.20;;;;;;5056298;28;20025;-80
2021/05/21 00:54:44;;;;;;;1.30;0.57;;;13.80;89.00;;;;;;5055119;28;20032;-80
2021/05/21 00:57:10;;;;;;;1.77;0.55;;;13.80;89.20;;;;;;5053892;28;20029;-80
2021/05/21 00:59:35;;;;;;;1.65;0.55;;;13.70;89.30;;;;;;5056143;28;20039;-80
2021/05/21 01:02:02;;;;;;;4.97;0.80;;;13.80;89.20;;;;;;5055989;28;20033;-80
2021/05/21 01:04:27;;;;;;;2.88;0.68;;;13.80;89.00;;;;;;5057001;28;20435;-80
2021/05/21 01:06:53;;;;;;;4.45;0.70;;;13.80;88.70;;;;;;5054914;28;20476;-80
2021/05/21 01:09:18;;;;;;;2.25;0.52;;;13.80;88.70;;;;;;5054590;28;20472;-80
2021/05/21 01:11:44;;;;;;;2.58;0.73;;;13.80;88.80;;;;;;5054672;28;20082;-80
2021/05/21 01:14:09;;;;;;;4.68;0.50;;;13.90;88.60;;;;;;5053743;28;20021;-80
2021/05/21 01:16:35;;;;;;;3.15;0.75;;;13.90;88.70;;;;;;5056198;28;20029;-80
2021/05/21 01:19:04;;;;;;;2.15;0.55;;;13.80;89.10;;;;;;5055460;28;20092;-80
2021/05/21 01:21:32;;;;;;;2.28;0.60;;;13.80;89.00;;;;;;5056910;28;20040;-80
2021/05/21 01:23:57;;;;;;;2.40;0.50;;;13.80;89.10;;;;;;5054605;28;20032;-80
2021/05/21 01:26:24;;;;;;;1.85;0.60;;;13.80;89.20;;;;;;5054742;28;20017;-80
2021/05/21 01:28:52;;;;;;;1.42;0.65;;;13.80;89.70;;;;;;5053759;28;20029;-80
2021/05/21 01:31:18;;;;;;;1.17;0.55;;;13.80;89.60;;;;;;5053493;28;20013;-80
2021/05/21 01:33:43;;;;;;;2.25;0.50;;;13.80;89.80;;;;;;5055398;28;20069;-80
2021/05/21 01:36:09;;;;;;;6.65;0.90;;;13.80;89.60;;;;;;5053639;28;20025;-80
2021/05/21 01:38:36;;;;;;;3.78;0.70;;;13.80;89.30;;;;;;5056681;28;20109;-80
2021/05/21 01:41:02;;;;;;;3.28;0.77;;;13.80;89.30;;;;;;5054264;28;20021;-80
2021/05/21 01:43:28;;;;;;;4.07;0.80;;;13.80;89.50;;;;;;5054753;28;20109;-80
2021/05/21 01:45:53;;;;;;;1.75;0.70;;;13.80;89.60;;;;;;5053338;28;20384;-80
2021/05/21 01:48:19;;;;;;;2.10;0.70;;;13.80;89.50;;;;;;5051748;28;20024;-80
2021/05/21 01:50:44;;;;;;;2.42;0.65;;;13.70;90.00;;;;;;5053931;28;20052;-80
2021/05/21 01:53:10;;;;;;;2.97;0.70;;;13.70;90.30;;;;;;5069041;28;20017;-80
2021/05/21 01:55:36;;;;;;;2.60;0.50;;;13.60;90.90;;;;;;5053376;28;20100;-80
2021/05/21 01:58:02;;;;;;;2.45;0.73;;;13.50;91.10;;;;;;5052982;28;20017;-80
2021/05/21 02:00:28;;;;;;;2.58;0.80;;;13.40;91.20;;;;;;5054792;28;20025;-80
2021/05/21 02:02:53;;;;;;;2.00;0.80;;;13.40;91.30;;;;;;5056778;28;20060;-80
2021/05/21 02:05:19;;;;;;;2.15;0.60;;;13.40;91.60;;;;;;5069714;28;20028;-80
2021/05/21 02:07:46;;;;;;;5.40;1.55;;;13.40;91.60;;;;;;5054702;28;20408;-80
2021/05/21 02:10:12;;;;;;;4.57;0.90;;;13.40;91.80;;;;;;5053188;28;20017;-80
2021/05/21 02:12:42;;;;;;;11.20;1.55;;;13.40;92.80;;;;;;5052942;28;20090;-80
2021/05/21 02:15:09;;;;;;;16.20;2.50;;;13.20;94.20;;;;;;5052437;28;20017;-80
2021/05/21 02:17:35;;;;;;;13.82;2.20;;;13.00;96.00;;;;;;5055372;28;20025;-80
2021/05/21 02:20:02;;;;;;;11.52;2.95;;;12.80;98.00;;;;;;5056653;28;20170;-80
2021/05/21 02:22:29;;;;;;;15.52;2.53;;;12.40;99.90;;;;;;5054108;28;20412;-80
2021/05/21 02:24:56;;;;;;;15.43;3.20;;;12.10;99.90;;;;;;5054979;28;20028;-80
2021/05/21 02:27:22;;;;;;;17.42;3.25;;;11.80;99.90;;;;;;5053078;28;20025;-80
2021/05/21 02:29:48;;;;;;;19.45;3.00;;;11.60;99.90;;;;;;5053037;28;20048;-80
2021/05/21 02:32:13;;;;;;;19.08;3.58;;;11.40;99.90;;;;;;5052382;28;20102;-80
2021/05/21 02:34:39;;;;;;;24.10;3.53;;;11.30;99.90;;;;;;5055083;28;20025;-80
2021/05/21 02:37:05;;;;;;;22.25;3.47;;;11.20;99.90;;;;;;5055043;28;20045;-80
2021/05/21 02:39:30;;;;;;;21.23;4.13;;;11.10;99.90;;;;;;5069457;28;20029;-80
2021/05/21 02:41:57;;;;;;;19.70;3.53;;;11.00;99.90;;;;;;5054863;28;20029;-80
2021/05/21 02:44:23;;;;;;;18.45;3.53;;;11.00;99.90;;;;;;5052903;28;20072;-80
2021/05/21 02:46:48;;;;;;;17.88;4.20;;;11.00;99.90;;;;;;5052935;28;20491;-80
2021/05/21 02:49:20;;;;;;;17.35;3.13;;;10.90;99.90;;;;;;5052235;28;20021;-80
2021/05/21 02:51:51;;;;;;;15.95;2.92;;;10.90;99.90;;;;;;5054671;28;20056;-80
2021/05/21 02:54:17;;;;;;;22.85;3.83;;;10.90;99.90;;;;;;5069125;28;20045;-80
2021/05/21 02:56:43;;;;;;;21.13;4.28;;;10.90;99.90;;;;;;5052448;28;20119;-80
2021/05/21 02:59:09;;;;;;;24.40;3.90;;;10.80;99.90;;;;;;5053676;28;20029;-80
2021/05/21 03:01:35;;;;;;;20.65;3.80;;;10.80;99.90;;;;;;5056616;28;20029;-80
2021/05/21 03:04:00;;;;;;;20.48;3.72;;;10.70;99.90;;;;;;5054268;28;20460;-80
2021/05/21 03:06:26;;;;;;;20.05;4.20;;;10.70;99.90;;;;;;5055107;28;20033;-80
2021/05/21 03:08:52;;;;;;;15.15;3.10;;;10.70;99.90;;;;;;5053326;28;20067;-80
2021/05/21 03:11:17;;;;;;;16.83;3.30;;;10.70;99.90;;;;;;5052628;28;20075;-80
2021/05/21 03:13:44;;;;;;;24.33;4.35;;;10.70;99.90;;;;;;5056009;28;20017;-80
2021/05/21 03:16:10;;;;;;;18.85;3.38;;;10.60;99.90;;;;;;5056615;28;20032;-80
2021/05/21 03:18:35;;;;;;;18.92;3.53;;;10.60;99.90;;;;;;5061668;28;20471;-80
2021/05/21 03:21:01;;;;;;;14.95;2.70;;;10.50;99.90;;;;;;5058085;28;20044;-80
2021/05/21 03:23:26;;;;;;;13.98;2.85;;;10.50;99.90;;;;;;5058826;28;20021;-80
2021/05/21 03:25:52;;;;;;;13.13;2.38;;;10.40;99.90;;;;;;5056903;28;20048;-80
2021/05/21 03:28:18;;;;;;;15.25;3.00;;;10.30;99.90;;;;;;5057012;28;20091;-80
2021/05/21 03:30:43;;;;;;;15.40;3.22;;;10.20;99.90;;;;;;5055816;28;20028;-80
2021/05/21 03:33:09;;;;;;;15.43;3.03;;;10.20;99.90;;;;;;5055790;28;20021;-80
2021/05/21 03:35:36;;;;;;;17.35;2.53;;;10.20;99.90;;;;;;5060017;28;20437;-80
2021/05/21 03:38:06;;;;;;;16.33;2.63;;;10.10;99.90;;;;;;5057222;28;20051;-80
2021/05/21 03:40:34;;;;;;;17.38;2.88;;;10.10;99.90;;;;;;5058699;28;20067;-80
2021/05/21 03:42:59;;;;;;;11.32;2.42;;;10.10;99.90;;;;;;5056499;28;20041;-80
2021/05/21 03:45:25;;;;;;;18.73;2.55;;;10.10;99.90;;;;;;5056707;28;20067;-80
2021/05/21 03:47:50;;;;;;;19.73;3.10;;;10.10;99.90;;;;;;5055519;28;20060;-80
2021/05/21 03:50:19;;;;;;;14.77;2.63;;;10.10;99.90;;;;;;5057831;28;20550;-80
2021/05/21 03:52:46;;;;;;;16.00;2.50;;;10.20;99.90;;;;;;5056968;28;20062;-80
2021/05/21 03:55:13;;;;;;;16.23;2.63;;;10.20;99.90;;;;;;5055668;28;20021;-80
2021/05/21 03:57:39;;;;;;;11.20;1.67;;;10.20;99.90;;;;;;5055631;28;20098;-80
2021/05/21 04:00:07;;;;;;;20.63;2.60;;;10.30;99.90;;;;;;5057616;28;20029;-80
2021/05/21 04:02:33;;;;;;;18.95;2.70;;;10.30;99.90;;;;;;5056250;28;20021;-80
2021/05/21 04:04:59;;;;;;;10.70;2.53;;;10.40;99.90;;;;;;5058443;28;20036;-80
2021/05/21 04:07:24;;;;;;;11.05;2.25;;;10.40;99.90;;;;;;5056336;28;20155;-80
2021/05/21 04:09:50;;;;;;;14.48;2.40;;;10.40;99.90;;;;;;5055686;28;20021;-80
2021/05/21 04:12:15;;;;;;;12.57;2.13;;;10.40;99.90;;;;;;5055586;28;20044;-80
2021/05/21 04:14:41;;;;;;;8.80;1.48;;;10.40;99.90;;;;;;5055564;28;20106;-80
2021/05/21 04:17:07;;;;;;;9.35;1.50;;;10.40;99.90;;;;;;5055179;28;20111;-80
2021/05/21 04:19:32;;;;;;;10.30;1.98;;;10.50;99.90;;;;;;5056041;28;20056;-79
2021/05/21 04:21:58;;;;;;;11.57;1.52;;;10.50;99.90;;;;;;5058201;28;20096;-80
2021/05/21 04:24:23;;;;;;;7.43;1.33;;;10.50;99.90;;;;;;5055880;28;20045;-79
2021/05/21 04:26:49;;;;;;;10.52;1.40;;;10.50;99.90;;;;;;5056616;28;20056;-80
2021/05/21 04:29:14;;;;;;;8.73;1.27;;;10.50;99.90;;;;;;5055281;28;20017;-80
2021/05/21 04:31:40;;;;;;;10.68;1.30;;;10.60;99.90;;;;;;5070383;28;20021;-80
2021/05/21 04:34:05;;;;;;;13.18;1.98;;;10.60;99.90;;;;;;5054296;28;20017;-80
2021/05/21 04:36:31;;;;;;;8.88;1.67;;;10.60;99.90;;;;;;5055192;28;20522;-80
2021/05/21 04:38:56;;;;;;;8.75;1.58;;;10.60;99.90;;;;;;5058099;28;20056;-80
2021/05/21 04:41:23;;;;;;;10.25;2.25;;;10.70;99.90;;;;;;5054385;28;20388;-80
2021/05/21 04:43:50;;;;;;;14.65;2.53;;;10.70;99.90;;;;;;5071866;28;20401;-80
2021/05/21 04:46:15;;;;;;;12.27;3.10;;;10.70;99.90;;;;;;5054693;28;20078;-80
2021/05/21 04:48:41;;;;;;;13.95;3.05;;;10.70;99.90;;;;;;5057564;28;20100;-80
2021/05/21 04:51:06;;;;;;;15.20;2.75;;;10.80;99.90;;;;;;5053867;28;20481;-79
2021/05/21 04:53:32;;;;;;;15.52;2.38;;;10.80;99.90;;;;;;5070353;28;20051;-80
2021/05/21 04:55:57;;;;;;;17.30;3.13;;;10.90;99.90;;;;;;5070680;28;20017;-80
2021/05/21 04:58:23;;;;;;;15.02;3.45;;;11.00;99.90;;;;;;5054106;28;20017;-80
2021/05/21 05:00:49;;;;;;;15.23;2.22;;;11.00;99.90;;;;;;5053585;28;20029;-80
2021/05/21 05:03:17;;;;;;;11.98;3.28;;;11.00;99.90;;;;;;5058321;28;20021;-80
2021/05/21 05:05:46;;;;;;;15.32;3.17;;;11.00;99.90;;;;;;5054394;28;20013;-80
2021/05/21 05:08:16;;;;;;;17.88;3.42;;;11.00;99.90;;;;;;5056524;28;20035;-80
2021/05/21 05:10:45;;;;;;;16.15;3.45;;;11.10;99.90;;;;;;5054771;28;20009;-80
2021/05/21 05:13:11;;;;;;;14.65;3.03;;;11.00;99.90;;;;;;5054899;28;20412;-80
2021/05/21 05:15:37;;;;;;;18.38;3.47;;;11.10;99.90;;;;;;5054107;28;20055;-82
2021/05/21 05:18:04;;;;;;;14.70;3.38;;;11.20;99.90;;;;;;5058288;28;20025;-82
2021/05/21 05:20:30;;;;;;;13.80;3.80;;;11.20;99.90;;;;;;5053506;28;20025;-81
2021/05/21 05:22:56;;;;;;;12.57;2.78;;;11.30;99.90;;;;;;5053803;28;20090;-80
2021/05/21 05:25:22;;;;;;;15.00;3.15;;;11.30;99.90;;;;;;5053737;28;20029;-80
2021/05/21 05:27:50;;;;;;;13.95;3.67;;;11.30;99.90;;;;;;5053881;28;20031;-80
2021/05/21 05:30:16;;;;;;;11.75;2.63;;;11.30;99.90;;;;;;5054050;28;20028;-80
2021/05/21 05:32:42;;;;;;;15.23;2.28;;;11.40;99.90;;;;;;5069059;28;20017;-80
2021/05/21 05:35:08;;;;;;;17.83;3.10;;;11.50;99.90;;;;;;5053082;28;20025;-80
2021/05/21 05:37:33;;;;;;;15.55;2.50;;;11.50;99.90;;;;;;5053693;28;20057;-80
2021/05/21 05:39:59;;;;;;;16.58;2.67;;;11.60;99.90;;;;;;5053768;28;20412;-80
2021/05/21 05:42:25;;;;;;;10.93;2.17;;;11.60;99.90;;;;;;5053687;28;20188;-80
2021/05/21 05:44:50;;;;;;;11.75;2.85;;;11.70;99.90;;;;;;5062106;28;20033;-80
2021/05/21 05:47:16;;;;;;;12.88;2.45;;;11.70;99.90;;;;;;5071643;28;20028;-82
2021/05/21 05:49:42;;;;;;;13.90;2.42;;;11.70;98.90;;;;;;5073265;28;20384;-82
2021/05/21 05:52:08;;;;;;;15.15;2.65;;;11.70;98.60;;;;;;5073269;28;20029;-82
2021/05/21 05:54:34;;;;;;;11.73;2.45;;;11.80;98.20;;;;;;5073568;28;20472;-82
2021/05/21 05:57:00;;;;;;;16.45;2.75;;;11.90;96.60;;;;;;5073464;28;20035;-83
2021/05/21 05:59:27;;;;;;;15.50;3.25;;;11.90;96.80;;;;;;5073412;28;20392;-82
2021/05/21 06:01:53;;;;;;;17.48;3.13;;;11.90;96.60;;;;;;5072030;28;20038;-82
2021/05/21 06:04:18;;;;;;;16.38;3.65;;;11.90;95.40;;;;;;5073398;28;20032;-82
2021/05/21 06:06:44;;;;;;;14.80;3.28;;;12.00;94.40;;;;;;5073273;28;20384;-82
2021/05/21 06:09:09;;;;;;;13.15;3.47;;;12.00;92.50;;;;;;5073406;28;20058;-81
2021/05/21 06:11:36;;;;;;;18.98;1.95;;;12.00;92.90;;;;;;5073317;28;20017;-81
2021/05/21 06:14:02;;;;;;;14.32;2.45;;;12.10;93.10;;;;;;5073070;28;20468;-80
2021/05/21 06:16:28;;;;;;;17.08;3.05;;;12.10;93.50;;;;;;5072386;28;20028;-81
2021/05/21 06:18:54;;;;;;;15.88;2.53;;;12.10;93.40;;;;;;5071150;28;20051;-80
2021/05/21 06:21:19;;;;;;;18.10;3.10;;;12.20;93.40;;;;;;5072716;28;20034;-80
2021/05/21 06:23:45;;;;;;;18.67;3.10;;;12.20;92.80;;;;;;5072721;28;20100;-80
2021/05/21 06:28:46;;;;;;;12.02;2.40;;;12.30;92.40;;;;;;5071253;28;20087;-80
2021/05/21 06:31:12;;;;;;;13.85;2.75;;;12.30;91.90;;;;;;5072705;28;20099;-83
2021/05/21 06:33:38;;;;;;;18.08;2.35;;;12.40;91.90;;;;;;5072062;28;20385;-82
2021/05/21 06:36:04;;;;;;;15.70;2.90;;;12.50;92.40;;;;;;5072783;28;20471;-81
2021/05/21 06:38:29;;;;;;;11.93;2.30;;;12.60;91.00;;;;;;5072955;28;20033;-81
2021/05/21 06:40:55;;;;;;;18.58;4.15;;;12.70;91.50;;;;;;5073095;28;20091;-81
2021/05/21 06:43:21;;;;;;;16.70;2.47;;;12.90;90.30;;;;;;5071638;28;20024;-80
2021/05/21 06:45:49;;;;;;;17.15;2.47;;;13.00;90.70;;;;;;5074207;28;20544;-81
2021/05/21 06:48:14;;;;;;;10.77;2.10;;;13.10;87.60;;;;;;5076195;28;20033;-79
2021/05/21 06:50:42;;;;;;;13.38;2.65;;;13.00;88.10;;;;;;5076102;28;20039;-81
2021/05/21 06:53:07;;;;;;;14.95;2.72;;;12.90;86.90;;;;;;5076235;28;20025;-81
2021/05/21 06:55:33;;;;;;;12.40;3.22;;;12.90;86.30;;;;;;5076384;28;20017;-80
2021/05/21 06:57:58;;;;;;;17.63;3.33;;;13.00;88.00;;;;;;5076350;28;20028;-80
2021/05/21 07:00:24;;;;;;;12.55;2.30;;;13.00;87.80;;;;;;5076503;28;20032;-80
2021/05/21 07:02:50;;;;;;;17.90;2.35;;;13.10;86.70;;;;;;5076092;28;20030;-80
2021/05/21 07:05:15;;;;;;;15.55;2.83;;;13.10;88.00;;;;;;5076306;28;20434;-83
2021/05/21 07:07:41;;;;;;;13.35;2.50;;;13.20;86.30;;;;;;5075226;28;20098;-80
2021/05/21 07:10:09;;;;;;;13.80;2.85;;;13.20;87.80;;;;;;5075561;28;20047;-81
2021/05/21 07:12:34;;;;;;;15.02;2.42;;;13.20;87.70;;;;;;5075844;28;20074;-80
2021/05/21 07:15:00;;;;;;;13.52;2.45;;;13.10;87.10;;;;;;5076175;28;20020;-81
2021/05/21 07:17:26;;;;;;;14.85;3.35;;;13.00;87.40;;;;;;5073830;28;20051;-80
2021/05/21 07:19:52;;;;;;;14.40;3.17;;;12.90;87.90;;;;;;5075140;28;20047;-81
2021/05/21 07:22:17;;;;;;;13.63;2.83;;;12.80;89.50;;;;;;5075029;28;20394;-82
2021/05/21 07:24:43;;;;;;;10.77;2.47;;;12.90;89.60;;;;;;5076320;28;20025;-80
2021/05/21 07:27:08;;;;;;;11.38;2.15;;;12.90;89.30;;;;;;5074496;28;20093;-80
2021/05/21 07:29:34;;;;;;;18.48;2.40;;;12.90;89.60;;;;;;5074041;28;20025;-80
2021/05/21 07:32:00;;;;;;;15.70;3.03;;;12.90;90.30;;;;;;5082461;28;20029;-80
2021/05/21 07:34:25;;;;;;;10.13;2.00;;;13.00;91.30;;;;;;5075912;28;20028;-80
2021/05/21 07:36:51;;;;;;;12.15;2.13;;;13.10;91.60;;;;;;5070511;28;20052;-80
2021/05/21 07:39:16;;;;;;;17.10;3.05;;;13.40;92.10;;;;;;5074722;28;20028;-80
2021/05/21 07:41:42;;;;;;;8.13;1.98;;;13.30;92.50;;;;;;5075784;28;20039;-80
2021/05/21 07:44:09;;;;;;;11.05;2.03;;;13.10;94.10;;;;;;5075849;28;20103;-80
2021/05/21 07:46:35;;;;;;;11.93;2.33;;;12.80;96.20;;;;;;5074018;28;20029;-80
2021/05/21 07:49:00;;;;;;;12.23;2.17;;;12.40;98.30;;;;;;5091296;28;20435;-81
2021/05/21 07:51:26;;;;;;;13.38;3.08;;;12.00;98.90;;;;;;5075533;28;20059;-80
2021/05/21 07:53:52;;;;;;;11.98;2.72;;;11.50;99.90;;;;;;5054829;28;20032;-80
2021/05/21 07:56:18;;;;;;;11.23;3.00;;;11.10;99.90;;;;;;5052876;28;20479;-80
2021/05/21 07:58:43;;;;;;;12.43;2.60;;;10.90;99.90;;;;;;5073895;28;20499;-80
2021/05/21 08:01:09;;;;;;;11.27;2.15;;;10.70;99.90;;;;;;5075447;28;20021;-80
2021/05/21 08:03:34;;;;;;;6.53;1.48;;;10.60;99.90;;;;;;5075470;28;20383;-80
2021/05/21 08:06:00;;;;;;;8.10;1.75;;;10.40;99.90;;;;;;5075274;28;20036;-80
2021/05/21 08:08:27;;;;;;;7.97;1.67;;;10.30;99.90;;;;;;5075541;28;20024;-80
2021/05/21 08:10:55;;;;;;;9.60;1.58;;;10.20;99.90;;;;;;5074228;28;20016;-80
2021/05/21 08:13:21;;;;;;;7.88;2.00;;;10.20;99.90;;;;;;5075428;28;20085;-80
2021/05/21 08:15:47;;;;;;;12.18;1.92;;;10.30;99.90;;;;;;5075102;28;20099;-79
2021/05/21 08:18:13;;;;;;;8.30;2.50;;;10.60;99.90;;;;;;5074082;28;20052;-80
2021/05/21 08:20:39;;;;;;;15.57;3.53;;;10.80;99.90;;;;;;5075146;28;20078;-80
2021/05/21 08:23:05;;;;;;;15.73;3.42;;;11.10;99.90;;;;;;5074640;28;20036;-80
2021/05/21 08:25:31;;;;;;;13.90;3.22;;;11.30;99.90;;;;;;5073636;28;20434;-79
2021/05/21 08:27:57;;;;;;;15.05;3.17;;;11.50;99.90;;;;;;5073774;28;20020;-80
2021/05/21 08:30:23;;;;;;;18.05;4.82;;;11.70;99.90;;;;;;5075098;28;20024;-79
2021/05/21 08:32:49;;;;;;;18.25;3.83;;;11.90;99.90;;;;;;5073774;28;20388;-79
2021/05/21 08:35:19;;;;;;;13.45;2.72;;;12.10;99.90;;;;;;5074744;28;20024;-79
2021/05/21 08:37:44;;;;;;;14.45;3.00;;;12.40;99.90;;;;;;5073521;28;20044;-80
2021/05/21 08:40:13;;;;;;;16.45;3.03;;;12.60;99.90;;;;;;5074809;28;20423;-80
2021/05/21 08:42:40;;;;;;;14.52;3.03;;;12.80;99.90;;;;;;5073512;28;20113;-79
2021/05/21 08:45:09;;;;;;;14.90;2.50;;;12.80;98.40;;;;;;5074226;28;20589;-79
2021/05/21 08:47:36;;;;;;;16.40;2.92;;;12.80;95.90;;;;;;5074582;28;20030;-79
2021/05/21 08:50:06;;;;;;;12.90;2.88;;;12.80;95.10;;;;;;5073180;28;20020;-82
2021/05/21 08:52:32;;;;;;;11.70;2.60;;;13.00;95.80;;;;;;5073335;28;20097;-81
2021/05/21 08:54:58;;;;;;;15.55;2.22;;;13.30;93.10;;;;;;5067075;28;20064;-81
2021/05/21 08:57:24;;;;;;;15.82;2.72;;;13.40;91.50;;;;;;5049736;28;20033;-81
2021/05/21 08:59:49;;;;;;;10.32;1.73;;;13.40;91.80;;;;;;5053246;28;20833;-82
2021/05/21 09:02:26;;;;;;;9.55;1.90;;;13.40;92.00;;;;;;5074302;28;20039;-83
2021/05/21 09:04:59;;;;;;;10.55;1.88;;;13.50;91.80;;;;;;5072643;28;20031;-82
2021/05/21 09:07:33;;;;;;;10.43;1.77;;;13.60;90.70;;;;;;5073828;28;20488;-83
2021/05/21 09:10:19;;;;;;;9.63;2.53;;;13.60;90.70;;;;;;5072655;28;20024;-80
2021/05/21 09:12:49;;;;;;;9.00;1.95;;;13.70;91.20;;;;;;5072887;28;20021;-80
2021/05/21 09:15:16;;;;;;;10.63;2.00;;;13.90;91.20;;;;;;5073412;28;20020;-80
2021/05/21 09:17:59;;;;;;;12.55;1.65;;;13.90;89.40;;;;;;5073136;28;20028;-80
2021/05/21 09:20:24;;;;;;;12.23;2.38;;;13.70;89.90;;;;;;5072715;28;20063;-80
2021/05/21 09:23:01;;;;;;;9.68;2.17;;;13.60;88.90;;;;;;5072863;28;20043;-80
2021/05/21 09:25:40;;;;;;;12.23;2.08;;;13.70;89.40;;;;;;5072851;28;20485;-80
2021/05/21 09:28:07;;;;;;;15.25;3.72;;;13.80;90.00;;;;;;5073368;28;20012;-80
2021/05/21 09:30:33;;;;;;;12.23;2.88;;;14.00;89.40;;;;;;5073463;28;20020;-80
2021/05/21 09:33:05;;;;;;;14.57;2.70;;;13.90;88.90;;;;;;5073399;28;20376;-80
2021/05/21 09:35:32;;;;;;;14.45;2.45;;;13.80;88.20;;;;;;5073112;28;20377;-80
2021/05/21 09:37:57;;;;;;;11.50;2.30;;;13.80;88.40;;;;;;5073025;28;20036;-80
2021/05/21 09:40:26;;;;;;;15.27;2.42;;;13.80;89.70;;;;;;5073118;28;20039;-80
2021/05/21 09:43:05;;;;;;;13.15;2.70;;;13.80;87.50;;;;;;5073429;28;20096;-78
2021/05/21 09:45:40;;;;;;;17.80;2.40;;;13.70;89.60;;;;;;5070056;28;20035;-79
2021/05/21 09:48:11;;;;;;;14.70;2.63;;;13.60;90.30;;;;;;5053030;28;20029;-79
2021/05/21 09:50:42;;;;;;;17.55;2.95;;;13.60;90.60;;;;;;5056438;28;20063;-80
2021/05/21 09:53:08;;;;;;;11.73;2.78;;;13.70;89.80;;;;;;5072186;28;20029;-80
2021/05/21 09:55:56;;;;;;;14.23;3.95;;;13.80;90.10;;;;;;5081953;28;20499;-79
2021/05/21 09:58:24;;;;;;;12.73;2.83;;;13.70;90.20;;;;;;5066984;28;20047;-80
2021/05/21 10:01:12;;;;;;;12.27;2.95;;;13.00;92.60;;;;;;5071083;28;20117;-81
2021/05/21 10:03:39;;;;;;;16.63;2.50;;;12.40;97.10;;;;;;5058157;28;20078;-83
2021/05/21 10:06:05;;;;;;;17.77;3.10;;;12.80;99.10;;;;;;5071952;28;20054;-82
2021/05/21 10:08:31;;;;;;;14.60;2.53;;;14.40;94.00;;;;;;5077189;28;20499;-82
2021/05/21 10:10:57;;;;;;;12.90;3.00;;;15.90;92.00;;;;;;5078187;28;20031;-86
2021/05/21 10:13:22;;;;;;;10.82;2.60;;;17.30;82.60;;;;;;5092222;28;20403;-83
2021/05/21 10:15:52;;;;;;;11.27;2.53;;;18.40;73.10;;;;;;5075739;28;20024;-84
2021/05/21 10:18:18;;;;;;;8.77;2.10;;;18.10;69.50;;;;;;5073357;28;20031;-84
2021/05/21 10:20:45;;;;;;;14.93;2.75;;;17.40;65.50;;;;;;5064698;28;20480;-85
2021/05/21 10:23:18;;;;;;;9.13;2.17;;;16.30;67.90;;;;;;5081930;28;20471;-85
2021/05/21 10:25:46;;;;;;;13.75;2.28;;;15.50;72.50;;;;;;5079121;28;20028;-83
2021/05/21 10:28:15;;;;;;;12.55;1.88;;;15.10;74.70;;;;;;5072756;28;20023;-84
2021/05/21 10:30:41;;;;;;;12.50;2.15;;;14.70;79.40;;;;;;5071949;28;20024;-84
2021/05/21 10:33:26;;;;;;;11.35;2.22;;;14.00;88.00;;;;;;5071585;28;20484;-85
2021/05/21 10:36:15;;;;;;;18.00;2.65;;;13.20;94.40;;;;;;5087820;28;20400;-84
2021/05/21 10:39:07;;;;;;;10.75;1.90;;;13.10;95.90;;;;;;5072387;28;20487;-84
2021/05/21 10:41:37;;;;;;;11.60;2.40;;;14.00;96.40;;;;;;5067255;28;20075;-86
2021/05/21 10:44:18;;;;;;;9.27;2.22;;;14.60;93.90;;;;;;5071885;28;20387;-83
2021/05/21 10:46:43;;;;;;;11.98;2.10;;;14.20;93.20;;;;;;5067528;28;20024;-80
2021/05/21 10:49:27;;;;;;;10.18;2.78;;;13.90;93.00;;;;;;5071982;28;20058;-82
2021/05/21 10:52:01;;;;;;;13.85;2.10;;;13.90;93.30;;;;;;5068847;28;20379;-81
2021/05/21 10:54:28;;;;;;;10.85;1.77;;;13.80;91.90;;;;;;5066423;28;20021;-82
2021/05/21 10:57:15;;;;;;;11.90;1.73;;;13.90;91.70;;;;;;5071311;28;20025;-82
2021/05/21 11:00:00;;;;;;;9.63;2.30;;;13.90;91.10;;;;;;5066047;28;20034;-82
2021/05/21 11:02:41;;;;;;;8.45;1.60;;;14.00;91.40;;;;;;5085573;28;20369;-82
2021/05/21 11:05:28;;;;;;;9.55;2.40;;;14.40;90.30;;;;;;5071457;28;20078;-82
2021/05/21 11:07:55;;;;;;;9.30;1.80;;;15.10;88.90;;;;;;5071377;28;20020;-82
2021/05/21 11:10:31;;;;;;;10.98;2.33;;;15.90;81.10;;;;;;5071279;28;20021;-81
2021/05/21 11:13:01;;;;;;;10.27;1.80;;;17.20;72.80;;;;;;5070099;28;20040;-82
2021/05/21 11:15:47;;;;;;;9.55;2.25;;;17.10;70.40;;;;;;5068345;28;20840;-82
2021/05/21 11:18:26;;;;;;;15.85;3.20;;;16.40;70.80;;;;;;5086297;28;20377;-82
2021/05/21 11:21:08;;;;;;;13.00;3.03;;;15.80;73.60;;;;;;5070800;28;20028;-82
2021/05/21 11:23:37;;;;;;;12.93;2.97;;;15.30;73.80;;;;;;5070893;28;20388;-82
2021/05/21 11:26:14;;;;;;;11.73;2.20;;;14.80;78.70;;;;;;5068290;28;20152;-82
2021/05/21 11:28:46;;;;;;;13.80;2.33;;;14.00;86.00;;;;;;5071204;28;20480;-81
2021/05/21 11:31:18;;;;;;;6.70;1.20;;;13.20;92.30;;;;;;5068662;28;20090;-81
2021/05/21 11:33:47;;;;;;;9.38;1.70;;;12.20;97.90;;;;;;5073687;28;20545;-80
2021/05/21 11:36:14;;;;;;;14.80;2.92;;;11.70;99.90;;;;;;5074372;28;20028;-81
2021/05/21 11:38:41;;;;;;;12.60;2.25;;;11.40;99.90;;;;;;5073877;28;20035;-81
2021/05/21 11:41:08;;;;;;;13.20;2.28;;;11.20;99.90;;;;;;5073188;28;20471;-81
2021/05/21 11:43:39;;;;;;;11.75;2.22;;;11.20;99.90;;;;;;5073226;28;20055;-80
2021/05/21 11:46:10;;;;;;;10.73;2.08;;;11.30;99.90;;;;;;5074537;28;20379;-81
2021/05/21 11:48:39;;;;;;;15.88;2.63;;;11.40;99.90;;;;;;5074165;28;20060;-83
2021/05/21 11:51:16;;;;;;;13.50;2.95;;;11.70;99.90;;;;;;5082307;28;20013;-82
2021/05/21 11:53:53;;;;;;;15.70;2.13;;;13.30;99.90;;;;;;5072492;28;20468;-82
2021/05/21 11:56:34;;;;;;;10.07;2.05;;;14.90;99.90;;;;;;5068791;28;20070;-82
2021/05/21 11:59:05;;;;;;;9.60;1.80;;;16.20;95.50;;;;;;5063583;28;20023;-83
2021/05/21 12:01:32;;;;;;;10.05;2.83;;;17.30;93.00;;;;;;5075212;28;20079;-82
2021/05/21 12:04:01;;;;;;;13.25;3.13;;;17.90;87.90;;;;;;5075211;28;20017;-82
2021/05/21 12:06:29;;;;;;;12.18;2.53;;;18.20;86.50;;;;;;5074996;28;20531;-82
2021/05/21 12:08:55;;;;;;;9.93;2.13;;;18.80;82.40;;;;;;5074689;28;20476;-81
2021/05/21 12:11:21;;;;;;;9.05;2.45;;;19.30;83.50;;;;;;5074943;28;20031;-83
2021/05/21 12:13:46;;;;;;;8.75;2.13;;;19.80;76.40;;;;;;5073510;28;20025;-85
2021/05/21 12:16:20;;;;;;;15.45;3.42;;;20.00;73.80;;;;;;5073610;28;20357;-82
2021/05/21 12:18:46;;;;;;;9.90;1.88;;;20.10;71.30;;;;;;5073500;28;20031;-82
2021/05/21 12:21:29;;;;;;;13.35;2.75;;;19.80;72.50;;;;;;5074997;28;20020;-81
2021/05/21 12:23:56;;;;;;;10.02;1.95;;;19.50;70.40;;;;;;5074337;28;20070;-81
2021/05/21 12:26:24;;;;;;;13.00;2.55;;;18.70;71.40;;;;;;5074586;28;20021;-82
2021/05/21 12:28:51;;;;;;;10.85;2.20;;;17.90;73.50;;;;;;5064256;28;20033;-81
2021/05/21 12:31:33;;;;;;;11.25;1.98;;;17.30;74.90;;;;;;5074795;28;20093;-81
2021/05/21 12:34:00;;;;;;;11.15;2.15;;;17.10;77.50;;;;;;5075574;28;20016;-81
2021/05/21 12:36:28;;;;;;;11.93;2.47;;;17.10;77.00;;;;;;5075524;28;20040;-81
2021/05/21 12:38:56;;;;;;;9.70;2.10;;;17.00;76.80;;;;;;5076436;28;20020;-81
2021/05/21 12:41:36;;;;;;;10.75;2.38;;;16.60;72.90;;;;;;5075609;28;20028;-82
2021/05/21 12:44:16;;;;;;;10.90;2.10;;;16.10;72.40;;;;;;5073970;28;20108;-81
2021/05/21 12:46:47;;;;;;;13.05;2.45;;;15.70;72.80;;;;;;5073909;28;20502;-80